Time;durP1;ratioP1;P1;durP2;ratioP2;P2;SDS_P1;SDS_P2;PMS_P1;PMS_P2;Temp;Humidity;BMP_temperature;BMP_pressure;BME280_temperature;BME280_humidity;BME280_pressure;Samples;Min_cycle;Max_cycle;Signal;HPM_P1;HPM_P2
2023/05/29 00:00:21;;;;;;;2.50;2.20;;;20.20;64.50;;;;;;5047244;28;20552;-81
2023/05/29 00:02:53;;;;;;;3.97;2.37;;;20.20;64.50;;;;;;5046982;28;20460;-81
2023/05/29 00:05:31;;;;;;;4.43;2.60;;;20.20;64.20;;;;;;5039822;28;20531;-85
2023/05/29 00:08:28;;;;;;;5.27;2.77;;;20.20;63.80;;;;;;5036499;28;20436;-86
2023/05/29 00:11:00;;;;;;;3.30;2.47;;;20.00;64.70;;;;;;5034030;28;20487;-83
2023/05/29 00:13:32;;;;;;;2.60;2.40;;;20.00;65.40;;;;;;5031570;28;20834;-86
2023/05/29 00:16:10;;;;;;;2.60;2.40;;;20.00;65.50;;;;;;5028846;28;21118;-85
2023/05/29 00:18:45;;;;;;;6.17;2.70;;;20.10;65.00;;;;;;5031335;28;20480;-86
2023/05/29 00:21:22;;;;;;;3.10;2.30;;;20.20;64.70;;;;;;5031251;28;21181;-84
2023/05/29 00:23:51;;;;;;;3.33;2.60;;;20.00;64.50;;;;;;5034234;28;21083;-83
2023/05/29 00:26:34;;;;;;;4.67;3.20;;;19.90;65.20;;;;;;5036213;28;20492;-85
2023/05/29 00:29:10;;;;;;;5.33;3.07;;;20.00;64.70;;;;;;5032197;28;20486;-84
2023/05/29 00:31:46;;;;;;;3.53;2.10;;;20.10;64.50;;;;;;5031453;28;20449;-85
2023/05/29 00:34:23;;;;;;;3.77;2.80;;;19.90;64.80;;;;;;5031588;28;20843;-84
2023/05/29 00:36:57;;;;;;;3.93;2.80;;;19.90;65.00;;;;;;5049173;28;20858;-84
2023/05/29 00:39:26;;;;;;;3.43;2.60;;;20.00;64.50;;;;;;5036771;28;20476;-84
2023/05/29 00:42:07;;;;;;;3.87;2.70;;;19.90;64.50;;;;;;5032775;28;20802;-82
2023/05/29 00:44:37;;;;;;;2.80;2.43;;;19.70;64.90;;;;;;5037741;28;20444;-83
2023/05/29 00:47:10;;;;;;;5.03;2.97;;;19.70;65.30;;;;;;5037046;28;21003;-85
2023/05/29 00:49:45;;;;;;;3.37;2.47;;;19.50;65.70;;;;;;5027849;28;20516;-81
2023/05/29 00:52:20;;;;;;;2.23;2.03;;;19.40;66.40;;;;;;5036358;28;20807;-84
2023/05/29 00:55:03;;;;;;;4.87;3.10;;;19.40;67.00;;;;;;5048521;28;20475;-86
2023/05/29 00:57:34;;;;;;;4.40;3.10;;;19.60;66.80;;;;;;5036388;28;20499;-85
2023/05/29 01:00:08;;;;;;;4.13;2.20;;;19.50;66.00;;;;;;5037500;28;20536;-85
2023/05/29 01:02:44;;;;;;;2.80;2.50;;;19.50;66.40;;;;;;5033056;28;20559;-85
2023/05/29 01:05:19;;;;;;;3.53;2.67;;;19.40;66.10;;;;;;5036065;28;20513;-84
2023/05/29 01:07:50;;;;;;;5.43;2.23;;;19.30;66.70;;;;;;5036985;28;20462;-85
2023/05/29 01:10:31;;;;;;;3.10;2.10;;;19.50;66.80;;;;;;5038942;28;20485;-86
2023/05/29 01:13:15;;;;;;;3.90;2.40;;;19.50;66.30;;;;;;5033852;28;20500;-84
2023/05/29 01:15:59;;;;;;;3.70;2.70;;;19.50;66.70;;;;;;5033373;28;20476;-84
2023/05/29 01:18:50;;;;;;;4.60;2.77;;;19.50;66.10;;;;;;5039307;28;20516;-86
2023/05/29 01:21:51;;;;;;;4.57;2.20;;;19.30;66.50;;;;;;5036074;28;20445;-84
2023/05/29 01:25:22;;;;;;;;;;;;;;;;;;;;;
2023/05/29 01:28:00;;;;;;;2.87;2.50;;;19.10;67.40;;;;;;5026805;28;20448;-85
2023/05/29 01:30:42;;;;;;;3.80;2.63;;;19.00;68.00;;;;;;5059575;28;20481;-84
2023/05/29 01:33:26;;;;;;;2.30;2.10;;;18.90;67.70;;;;;;5055340;28;20454;-82
2023/05/29 01:35:58;;;;;;;4.37;2.90;;;18.80;68.30;;;;;;5056870;28;20461;-82
2023/05/29 01:38:50;;;;;;;3.90;2.37;;;18.90;68.70;;;;;;5056029;28;20437;-83
2023/05/29 01:41:31;;;;;;;3.40;2.20;;;18.90;68.40;;;;;;5048287;28;20461;-83
2023/05/29 01:44:12;;;;;;;4.40;2.53;;;18.90;68.30;;;;;;5034205;28;20454;-85
2023/05/29 01:46:53;;;;;;;4.80;2.67;;;18.80;68.30;;;;;;5030490;28;20523;-85
2023/05/29 01:49:27;;;;;;;3.03;2.63;;;18.60;69.00;;;;;;5030715;28;20519;-84
2023/05/29 01:51:54;;;;;;;3.20;1.97;;;18.70;69.20;;;;;;5026531;28;20468;-84
2023/05/29 01:54:25;;;;;;;2.53;2.33;;;18.60;68.60;;;;;;5033284;28;20461;-85
2023/05/29 01:57:06;;;;;;;2.53;2.33;;;18.50;68.90;;;;;;5029406;28;20465;-83
2023/05/29 01:59:37;;;;;;;4.53;2.20;;;18.50;69.40;;;;;;5028299;28;20489;-85
2023/05/29 02:02:14;;;;;;;2.73;2.53;;;18.50;69.80;;;;;;5020238;28;20446;-84
2023/05/29 02:04:47;;;;;;;5.17;2.77;;;18.40;70.40;;;;;;5028465;28;20495;-83
2023/05/29 02:07:17;;;;;;;3.33;2.30;;;18.40;70.50;;;;;;5025326;28;20479;-84
2023/05/29 02:09:49;;;;;;;4.00;2.87;;;18.60;69.80;;;;;;5030672;28;21046;-85
2023/05/29 02:12:19;;;;;;;4.70;2.60;;;18.60;69.20;;;;;;5026284;28;20442;-84
2023/05/29 02:14:54;;;;;;;2.87;2.67;;;18.40;68.90;;;;;;5029929;28;20437;-84
2023/05/29 02:17:38;;;;;;;2.73;2.43;;;18.20;69.30;;;;;;5031028;28;20476;-84
2023/05/29 02:20:10;;;;;;;3.90;2.80;;;18.20;69.30;;;;;;5028546;28;20462;-86
2023/05/29 02:22:45;;;;;;;3.00;2.50;;;18.30;68.70;;;;;;5031738;28;20509;-85
2023/05/29 02:25:22;;;;;;;3.87;2.20;;;18.20;68.30;;;;;;5032137;28;20579;-85
2023/05/29 02:27:57;;;;;;;4.90;3.60;;;18.10;68.50;;;;;;5031657;28;20465;-85
2023/05/29 02:30:35;;;;;;;4.17;2.53;;;17.90;69.10;;;;;;5029430;28;20481;-84
2023/05/29 02:33:15;;;;;;;3.03;2.50;;;18.00;69.10;;;;;;5043342;28;20437;-82
2023/05/29 02:35:51;;;;;;;2.37;2.17;;;17.90;69.10;;;;;;5062320;28;20468;-82
2023/05/29 02:38:23;;;;;;;3.30;2.53;;;17.70;69.90;;;;;;5049202;28;20442;-82
2023/05/29 02:40:57;;;;;;;5.50;2.37;;;17.60;70.10;;;;;;5055200;28;20476;-81
2023/05/29 02:43:46;;;;;;;2.57;2.37;;;17.60;70.50;;;;;;5049710;28;20448;-83
2023/05/29 02:46:26;;;;;;;2.70;2.50;;;17.60;70.90;;;;;;5050961;28;20462;-82
2023/05/29 02:48:58;;;;;;;3.73;3.27;;;17.60;71.20;;;;;;5051793;28;20456;-81
2023/05/29 02:51:33;;;;;;;3.87;2.97;;;17.60;71.60;;;;;;5054435;28;20465;-81
2023/05/29 02:54:06;;;;;;;3.13;2.10;;;17.40;72.00;;;;;;5060596;28;20480;-82
2023/05/29 02:56:45;;;;;;;4.80;2.50;;;17.40;72.20;;;;;;5053182;28;20453;-82
2023/05/29 03:02:42;;;;;;;3.37;2.10;;;17.20;72.60;;;;;;5026154;28;20449;-83
2023/05/29 03:06:02;;;;;;;3.37;2.50;;;17.40;72.50;;;;;;5029283;28;20453;-84
2023/05/29 03:08:52;;;;;;;4.43;2.47;;;17.30;71.90;;;;;;5030810;28;20473;-83
2023/05/29 03:11:24;;;;;;;2.00;1.70;;;17.20;72.70;;;;;;5029156;28;20515;-83
2023/05/29 03:13:59;;;;;;;3.20;2.17;;;17.00;73.60;;;;;;5023072;28;20464;-84
2023/05/29 03:16:38;;;;;;;4.03;2.03;;;17.00;74.20;;;;;;5032020;28;20854;-84
2023/05/29 03:19:10;;;;;;;4.30;2.37;;;16.90;74.70;;;;;;5031214;28;20535;-82
2023/05/29 03:21:40;;;;;;;3.53;2.27;;;17.10;74.70;;;;;;5035696;28;20438;-83
2023/05/29 03:24:17;;;;;;;4.70;2.40;;;16.90;74.60;;;;;;5052005;28;20433;-81
2023/05/29 03:26:50;;;;;;;3.33;2.40;;;17.00;74.60;;;;;;5052357;28;20477;-85
2023/05/29 03:29:27;;;;;;;3.63;2.47;;;16.90;74.80;;;;;;5029283;28;20452;-86
2023/05/29 03:31:56;;;;;;;3.90;2.60;;;16.80;75.30;;;;;;5040325;28;20453;-84
2023/05/29 03:34:31;;;;;;;5.40;2.50;;;16.90;76.00;;;;;;5032265;28;21389;-86
2023/05/29 03:37:11;;;;;;;3.83;2.10;;;16.80;76.20;;;;;;5029008;28;20476;-83
2023/05/29 03:39:48;;;;;;;4.17;2.10;;;16.70;76.40;;;;;;5030305;28;20449;-85
2023/05/29 03:42:30;;;;;;;6.07;2.40;;;16.80;76.80;;;;;;5022553;28;20449;-82
2023/05/29 03:45:02;;;;;;;4.60;2.70;;;16.70;77.00;;;;;;5036588;28;20441;-83
2023/05/29 03:47:38;;;;;;;5.70;2.67;;;16.60;77.70;;;;;;5041205;28;20477;-85
2023/05/29 03:50:14;;;;;;;4.13;2.60;;;16.50;79.00;;;;;;5030306;28;21011;-83
2023/05/29 03:52:49;;;;;;;3.77;2.23;;;16.40;79.60;;;;;;5024751;28;20471;-84
2023/05/29 03:55:23;;;;;;;6.27;2.57;;;16.40;80.70;;;;;;5041708;28;20468;-83
2023/05/29 03:58:01;;;;;;;4.23;2.30;;;16.30;80.30;;;;;;5030524;28;20464;-82
2023/05/29 04:00:32;;;;;;;2.60;2.20;;;16.20;80.50;;;;;;5034927;28;20457;-84
2023/05/29 04:03:05;;;;;;;3.27;2.17;;;16.40;80.80;;;;;;5028073;28;20685;-84
2023/05/29 04:05:38;;;;;;;4.10;2.37;;;16.40;81.70;;;;;;5031548;28;20473;-84
2023/05/29 04:08:13;;;;;;;5.17;2.43;;;16.50;81.10;;;;;;5038230;28;20468;-84
2023/05/29 04:11:09;;;;;;;4.13;1.93;;;16.40;80.60;;;;;;5035727;28;20535;-85
2023/05/29 04:13:48;;;;;;;6.00;2.43;;;16.20;81.60;;;;;;5032987;28;20453;-85
2023/05/29 04:16:27;;;;;;;4.23;2.30;;;16.20;82.70;;;;;;5037256;28;20626;-85
2023/05/29 04:18:59;;;;;;;11.10;2.97;;;16.20;82.50;;;;;;5046949;28;20471;-84
2023/05/29 04:21:35;;;;;;;3.57;2.57;;;16.20;82.50;;;;;;5050982;28;20457;-84
2023/05/29 04:24:11;;;;;;;4.93;3.03;;;16.20;82.70;;;;;;5042629;28;20459;-84
2023/05/29 04:26:52;;;;;;;5.90;2.40;;;16.30;81.80;;;;;;5047281;28;20465;-86
2023/05/29 04:29:34;;;;;;;6.30;2.90;;;16.20;81.80;;;;;;5043210;28;20429;-85
2023/05/29 04:32:16;;;;;;;7.67;3.00;;;16.30;81.50;;;;;;5038977;28;20483;-86
2023/05/29 04:34:43;;;;;;;5.30;2.50;;;16.40;81.10;;;;;;5040443;28;20452;-85
2023/05/29 04:37:17;;;;;;;7.13;3.47;;;16.20;81.50;;;;;;5047413;28;20522;-86
2023/05/29 04:39:46;;;;;;;4.97;2.60;;;16.10;82.30;;;;;;5036787;28;20545;-87
2023/05/29 04:42:16;;;;;;;5.03;3.10;;;16.10;82.60;;;;;;5047260;28;20874;-83
2023/05/29 04:44:54;;;;;;;5.87;2.47;;;16.30;82.20;;;;;;5052371;28;20522;-84
2023/05/29 04:47:45;;;;;;;5.40;2.67;;;16.20;81.80;;;;;;5046673;28;20618;-86
2023/05/29 04:50:30;;;;;;;5.30;2.87;;;16.20;83.20;;;;;;5032093;28;21050;-87
2023/05/29 04:53:12;;;;;;;4.13;2.23;;;16.30;81.90;;;;;;5039339;28;20433;-80
2023/05/29 04:55:49;;;;;;;4.07;2.40;;;16.30;81.20;;;;;;5057895;28;20481;-80
2023/05/29 04:58:19;;;;;;;5.03;3.33;;;16.60;80.60;;;;;;5052381;28;20619;-82
2023/05/29 05:00:48;;;;;;;4.27;2.30;;;16.50;80.20;;;;;;5050459;28;20462;-82
2023/05/29 05:03:24;;;;;;;3.30;2.73;;;16.50;80.60;;;;;;5034317;28;20810;-83
2023/05/29 05:06:09;;;;;;;8.40;4.00;;;16.50;80.80;;;;;;5033442;28;20468;-85
2023/05/29 05:09:04;;;;;;;7.70;3.23;;;16.60;80.40;;;;;;5017570;28;20450;-84
2023/05/29 05:11:45;;;;;;;3.43;2.70;;;16.50;81.10;;;;;;5047000;28;20457;-83
2023/05/29 05:14:32;;;;;;;5.73;3.07;;;16.40;81.60;;;;;;5033834;28;20453;-84
2023/05/29 05:17:10;;;;;;;4.73;2.87;;;16.40;82.10;;;;;;5037004;28;20465;-82
2023/05/29 05:19:53;;;;;;;9.03;3.00;;;16.40;82.30;;;;;;5041188;28;20537;-85
2023/05/29 05:22:28;;;;;;;6.60;2.90;;;16.50;82.50;;;;;;5035949;28;20483;-84
2023/05/29 05:25:01;;;;;;;7.87;3.37;;;16.60;82.10;;;;;;5038549;28;20449;-82
2023/05/29 05:27:36;;;;;;;4.90;2.30;;;16.60;82.20;;;;;;5039946;28;20481;-85
2023/05/29 05:30:16;;;;;;;5.70;3.03;;;16.90;81.70;;;;;;5051325;28;20456;-84
2023/05/29 05:32:44;;;;;;;7.10;3.20;;;16.80;81.10;;;;;;5052765;28;20433;-83
2023/05/29 05:35:34;;;;;;;4.90;2.50;;;16.80;81.90;;;;;;5044628;28;20749;-82
2023/05/29 05:38:18;;;;;;;5.67;3.20;;;16.60;82.20;;;;;;5049690;28;20433;-83
2023/05/29 05:41:10;;;;;;;3.77;2.90;;;16.60;82.80;;;;;;5046329;28;20548;-86
2023/05/29 05:43:42;;;;;;;4.40;2.80;;;16.90;82.80;;;;;;5039021;28;20457;-86
2023/05/29 05:46:13;;;;;;;6.07;2.77;;;16.80;82.00;;;;;;5037391;28;20465;-84
2023/05/29 05:48:56;;;;;;;7.17;3.60;;;16.70;82.70;;;;;;5030029;28;20597;-85
2023/05/29 05:51:32;;;;;;;6.20;3.23;;;16.90;82.90;;;;;;5030176;28;20478;-82
2023/05/29 05:54:06;;;;;;;6.30;2.97;;;17.20;80.50;;;;;;5025860;28;20464;-87
2023/05/29 05:56:44;;;;;;;6.37;3.03;;;17.00;80.50;;;;;;5037724;28;20511;-85
2023/05/29 05:59:25;;;;;;;7.30;3.07;;;16.80;80.80;;;;;;5038319;28;20473;-83
2023/05/29 06:02:19;;;;;;;8.20;2.87;;;16.70;81.10;;;;;;5042675;28;20442;-84
2023/05/29 06:05:04;;;;;;;6.03;3.20;;;17.10;81.20;;;;;;5035291;28;20511;-82
2023/05/29 06:07:35;;;;;;;9.93;3.27;;;17.00;81.20;;;;;;5024033;28;20495;-84
2023/05/29 06:10:10;;;;;;;5.73;2.63;;;17.30;81.20;;;;;;5035904;28;20549;-83
2023/05/29 06:12:39;;;;;;;5.50;3.50;;;17.40;79.10;;;;;;5034000;28;20445;-85
2023/05/29 06:15:12;;;;;;;6.40;3.80;;;17.70;78.10;;;;;;5032725;28;20452;-82
2023/05/29 06:17:51;;;;;;;4.77;3.57;;;17.60;77.00;;;;;;5031008;28;20477;-83
2023/05/29 06:20:19;;;;;;;5.27;3.00;;;17.30;77.60;;;;;;5038031;28;20476;-83
2023/05/29 06:22:57;;;;;;;9.00;3.47;;;17.10;79.20;;;;;;5028056;28;20460;-85
2023/05/29 06:25:38;;;;;;;7.47;2.70;;;17.10;80.10;;;;;;5030406;28;20463;-84
2023/05/29 06:28:20;;;;;;;6.37;2.77;;;17.10;80.70;;;;;;5017498;28;20438;-84
2023/05/29 06:30:55;;;;;;;8.70;3.07;;;17.40;79.90;;;;;;5028386;28;20940;-85
2023/05/29 06:36:52;;;;;;;4.13;2.33;;;17.80;77.70;;;;;;5038898;28;20508;-83
2023/05/29 06:39:27;;;;;;;4.93;2.40;;;17.80;77.30;;;;;;5050874;28;20446;-83
2023/05/29 06:42:08;;;;;;;7.50;2.77;;;17.80;76.10;;;;;;5044944;28;20442;-86
2023/05/29 06:44:46;;;;;;;6.60;2.27;;;17.70;76.30;;;;;;5036562;28;20462;-86
2023/05/29 06:47:41;;;;;;;5.70;2.63;;;17.60;77.30;;;;;;5030266;28;20455;-84
2023/05/29 06:50:17;;;;;;;5.63;2.77;;;17.40;78.00;;;;;;5036699;28;20475;-84
2023/05/29 06:52:52;;;;;;;9.10;2.80;;;17.60;77.90;;;;;;5030303;28;20492;-85
2023/05/29 06:55:25;;;;;;;5.43;3.00;;;17.70;77.30;;;;;;5032543;28;20980;-86
2023/05/29 06:58:01;;;;;;;4.50;2.20;;;17.80;75.80;;;;;;5025937;28;20460;-85
2023/05/29 07:00:30;;;;;;;6.13;1.97;;;17.90;75.40;;;;;;5036524;28;20456;-86
2023/05/29 07:02:57;;;;;;;4.57;2.80;;;17.90;75.80;;;;;;5030850;28;20526;-84
2023/05/29 07:05:47;;;;;;;5.23;2.53;;;18.10;75.20;;;;;;5044677;28;20433;-84
2023/05/29 07:08:15;;;;;;;6.57;2.17;;;18.00;75.30;;;;;;5039349;28;20442;-85
2023/05/29 07:10:50;;;;;;;5.30;2.47;;;18.10;75.70;;;;;;5038079;28;20571;-85
2023/05/29 07:13:29;;;;;;;7.10;2.17;;;18.30;74.70;;;;;;5028950;28;20460;-84
2023/05/29 07:16:20;;;;;;;6.87;2.07;;;18.40;74.10;;;;;;5036944;28;20485;-83
2023/05/29 07:19:25;;;;;;;7.20;2.83;;;18.40;74.10;;;;;;5032967;28;20531;-82
2023/05/29 07:23:00;;;;;;;3.60;2.07;;;18.50;72.60;;;;;;5032346;28;20439;-84
2023/05/29 07:30:23;;;;;;;;;;;;;;;;;;;;;
2023/05/29 07:34:21;;;;;;;;;;;;;;;;;;;;;
2023/05/29 07:40:24;;;;;;;3.30;2.23;;;18.70;72.00;;;;;;5184085;22;20489;-85
2023/05/29 07:43:46;;;;;;;6.60;2.77;;;18.60;72.40;;;;;;5004720;28;20489;-83
2023/05/29 07:47:02;;;;;;;4.93;2.67;;;19.00;71.80;;;;;;4941004;28;20497;-86
2023/05/29 07:54:17;;;;;;;;;;;;;;;;;;;;;
2023/05/29 07:57:26;;;;;;;6.93;3.20;;;19.10;70.20;;;;;;4879040;29;20923;-83
2023/05/29 08:00:48;;;;;;;6.13;2.43;;;19.30;70.60;;;;;;4873998;29;20516;-85
2023/05/29 08:04:45;;;;;;;4.80;2.13;;;19.40;70.00;;;;;;4823044;29;20495;-84
2023/05/29 08:10:58;;;;;;;4.73;2.47;;;19.90;68.00;;;;;;1494070;26;20476;-84
2023/05/29 08:13:50;;;;;;;6.17;2.50;;;19.80;67.30;;;;;;5049327;28;20458;-86
2023/05/29 08:16:19;;;;;;;6.43;2.80;;;19.60;68.40;;;;;;5036325;28;20509;-85
2023/05/29 08:18:46;;;;;;;4.67;2.10;;;20.20;67.20;;;;;;5022836;28;20488;-85
2023/05/29 08:21:16;;;;;;;6.33;2.60;;;20.50;66.20;;;;;;5022442;28;20549;-83
2023/05/29 08:23:50;;;;;;;4.23;2.77;;;20.70;65.30;;;;;;5017779;28;20466;-84
2023/05/29 08:27:01;;;;;;;4.57;2.67;;;20.70;64.50;;;;;;5011472;28;20485;-83
2023/05/29 08:30:16;;;;;;;5.33;2.80;;;20.70;64.30;;;;;;5024126;28;20473;-84
2023/05/29 08:33:36;;;;;;;7.17;2.80;;;22.20;61.10;;;;;;5016740;28;20482;-85
2023/05/29 08:40:07;;;;;;;4.33;2.60;;;22.60;59.60;;;;;;5008908;28;20469;-85
2023/05/29 08:44:04;;;;;;;4.90;2.40;;;22.60;58.80;;;;;;5012183;28;20933;-85
2023/05/29 08:47:42;;;;;;;4.70;2.30;;;22.50;58.20;;;;;;5010526;28;20547;-84
2023/05/29 08:51:08;;;;;;;;;;;;;;;;;;;;;
2023/05/29 08:54:16;;;;;;;;;;;;;;;;;;;;;
2023/05/29 08:57:35;;;;;;;4.47;2.30;;;25.80;52.10;;;;;;5052328;23;21019;-83
2023/05/29 09:01:28;;;;;;;4.73;2.37;;;25.60;51.30;;;;;;5028742;28;20444;-84
2023/05/29 09:08:33;;;;;;;3.27;2.17;;;25.20;51.30;;;;;;5059872;23;20511;-84
2023/05/29 09:11:58;;;;;;;2.20;1.50;;;25.90;50.20;;;;;;4963460;28;21075;-84
2023/05/29 09:14:51;;;;;;;5.40;2.27;;;26.90;48.10;;;;;;4949380;29;20684;-85
2023/05/29 09:18:23;;;;;;;;;;;;;;;;;;;;;
2023/05/29 09:21:34;;;;;;;3.03;1.90;;;28.40;46.10;;;;;;4962442;29;20603;-85
2023/05/29 09:24:54;;;;;;;3.40;1.70;;;29.00;43.70;;;;;;4899502;29;20947;-84
2023/05/29 09:34:19;;;;;;;2.43;2.10;;;28.20;45.20;;;;;;5031860;28;20977;-84
2023/05/29 09:38:06;;;;;;;3.73;2.47;;;28.80;44.00;;;;;;5034307;28;20507;-82
2023/05/29 09:42:00;;;;;;;;;;;;;;;;;;;;;
2023/05/29 09:45:43;;;;;;;4.60;2.97;;;29.60;43.20;;;;;;4996511;28;20440;-83
2023/05/29 09:52:45;;;;;;;3.77;2.10;;;28.90;43.10;;;;;;5040585;28;20477;-82
2023/05/29 10:05:21;;;;;;;4.60;2.20;;;30.20;41.50;;;;;;5020701;28;20456;-83
2023/05/29 10:08:27;;;;;;;2.87;1.77;;;29.50;41.80;;;;;;5028930;28;20435;-81
2023/05/29 10:12:00;;;;;;;3.60;2.30;;;29.10;42.40;;;;;;5049652;28;20442;-84
2023/05/29 10:14:52;;;;;;;5.20;2.80;;;29.20;42.30;;;;;;4968180;28;20447;-82
2023/05/29 10:17:55;;;;;;;5.00;2.37;;;29.40;42.20;;;;;;4959861;28;20480;-83
2023/05/29 10:21:01;;;;;;;3.17;2.17;;;30.20;41.70;;;;;;5008793;28;20487;-83
2023/05/29 10:24:50;;;;;;;4.77;2.53;;;29.30;42.30;;;;;;4991695;28;20500;-84
2023/05/29 10:28:09;;;;;;;5.10;3.00;;;28.90;42.80;;;;;;4989423;28;20467;-83
2023/05/29 10:31:27;;;;;;;4.37;2.20;;;29.70;41.70;;;;;;4935914;28;20454;-82
2023/05/29 10:35:17;;;;;;;;;;;;;;;;;;;;;
2023/05/29 10:39:00;;;;;;;2.57;1.90;;;29.80;41.50;;;;;;4846751;29;20549;-84
2023/05/29 10:42:20;;;;;;;4.73;2.20;;;29.00;42.30;;;;;;4874582;29;20522;-85
2023/05/29 10:49:32;;;;;;;4.97;2.53;;;28.70;44.00;;;;;;4895515;29;20551;-85
2023/05/29 10:52:55;;;;;;;;;;;;;;;;;;;;;
2023/05/29 10:59:56;;;;;;;5.47;2.83;;;27.90;44.00;;;;;;4879041;29;20459;-83
2023/05/29 11:03:24;;;;;;;4.17;2.50;;;27.70;45.10;;;;;;4867382;29;20746;-84
2023/05/29 11:06:42;;;;;;;2.97;2.23;;;28.40;44.10;;;;;;4872927;29;21324;-84
2023/05/29 11:09:40;;;;;;;4.30;2.37;;;28.60;43.50;;;;;;4927756;29;21035;-86
2023/05/29 11:12:40;;;;;;;4.20;2.33;;;28.60;43.70;;;;;;4951713;29;20504;-84
2023/05/29 11:26:17;;;;;;;6.50;2.43;;;28.60;43.60;;;;;;4904365;28;20482;-85
2023/05/29 11:37:43;;;;;;;2.67;2.47;;;27.70;44.60;;;;;;4941719;28;20525;-85
2023/05/29 11:49:09;;;;;;;4.63;2.27;;;28.30;44.80;;;;;;4907275;28;21061;-85
2023/05/29 11:53:00;;;;;;;5.30;2.17;;;28.50;44.10;;;;;;4982759;28;20472;-85
2023/05/29 11:56:53;;;;;;;;;;;;;;;;;;;;;
2023/05/29 12:03:59;;;;;;;3.00;2.27;;;29.40;43.00;;;;;;5040516;28;20464;-84
2023/05/29 12:07:40;;;;;;;;;;;;;;;;;;;;;
2023/05/29 12:10:52;;;;;;;3.00;2.50;;;29.00;44.30;;;;;;5030240;28;20471;-84
2023/05/29 12:14:01;;;;;;;4.73;2.37;;;28.90;43.70;;;;;;5008924;28;20957;-82
2023/05/29 12:17:04;;;;;;;2.77;1.87;;;28.60;44.00;;;;;;5016045;28;21345;-85
2023/05/29 12:20:17;;;;;;;3.80;2.17;;;28.40;44.30;;;;;;5018666;28;20460;-85
2023/05/29 12:23:44;;;;;;;;;;;;;;;;;;;;;
2023/05/29 12:29:32;;;;;;;4.00;2.30;;;29.10;42.90;;;;;;4656036;26;20469;-85
2023/05/29 12:32:35;;;;;;;4.03;2.60;;;28.90;42.80;;;;;;4958826;28;20478;-84
2023/05/29 12:35:36;;;;;;;3.73;2.00;;;28.80;43.30;;;;;;4965867;28;20453;-84
2023/05/29 12:38:57;;;;;;;4.37;2.20;;;28.80;43.40;;;;;;4925938;29;20452;-86
2023/05/29 12:42:14;;;;;;;6.90;2.60;;;28.50;43.60;;;;;;4930620;29;21877;-84
2023/05/29 12:45:36;;;;;;;3.50;2.73;;;28.70;43.40;;;;;;4946190;29;20455;-85
2023/05/29 12:49:03;;;;;;;2.70;2.17;;;28.60;43.60;;;;;;4940890;29;20457;-85
2023/05/29 12:52:33;;;;;;;3.40;2.17;;;29.00;42.50;;;;;;4929650;29;20478;-86
2023/05/29 12:55:56;;;;;;;3.60;2.30;;;28.70;42.80;;;;;;4942294;29;20432;-86
2023/05/29 12:59:14;;;;;;;3.80;2.40;;;28.60;42.90;;;;;;4898789;29;20458;-86
2023/05/29 13:02:54;;;;;;;3.10;2.27;;;28.20;43.20;;;;;;4932160;29;20462;-86
2023/05/29 13:06:19;;;;;;;3.40;2.30;;;27.70;44.00;;;;;;4960876;28;20460;-85
2023/05/29 13:10:08;;;;;;;4.50;2.30;;;28.30;43.30;;;;;;4981911;28;20496;-86
2023/05/29 13:13:40;;;;;;;3.57;2.30;;;28.10;43.00;;;;;;4989853;28;20532;-85
2023/05/29 13:17:31;;;;;;;3.87;2.40;;;27.70;44.60;;;;;;4991348;28;21061;-84
2023/05/29 13:24:11;;;;;;;3.53;1.90;;;27.60;44.20;;;;;;4985862;28;20555;-84
2023/05/29 13:27:30;;;;;;;3.70;2.20;;;27.60;45.40;;;;;;5034964;28;20518;-85
2023/05/29 13:34:50;;;;;;;4.83;2.33;;;27.40;45.10;;;;;;5019979;28;20521;-84
2023/05/29 13:38:08;;;;;;;4.60;2.23;;;27.90;43.80;;;;;;5035225;28;20462;-82
2023/05/29 13:40:43;;;;;;;4.47;2.20;;;27.90;43.50;;;;;;5034453;28;20473;-84
2023/05/29 13:43:33;;;;;;;2.80;1.90;;;27.50;43.80;;;;;;5034832;28;20429;-80
2023/05/29 13:46:32;;;;;;;4.90;2.50;;;27.10;44.20;;;;;;5036631;28;20496;-82
2023/05/29 13:49:28;;;;;;;4.13;2.50;;;27.00;44.70;;;;;;5030321;28;20464;-83
2023/05/29 13:52:25;;;;;;;2.50;2.13;;;26.90;44.60;;;;;;5040597;28;20461;-83
2023/05/29 13:55:45;;;;;;;3.20;2.67;;;26.40;45.50;;;;;;5050591;28;20434;-83
2023/05/29 13:58:35;;;;;;;9.43;2.70;;;26.50;45.50;;;;;;5035684;28;20442;-82
2023/05/29 14:02:21;;;;;;;3.27;2.20;;;26.40;45.60;;;;;;5044330;28;20442;-81
2023/05/29 14:05:26;;;;;;;3.10;2.40;;;26.70;45.40;;;;;;5019812;28;20553;-83
2023/05/29 14:08:42;;;;;;;;;;;;;;;;;;;;;
2023/05/29 14:16:18;;;;;;;;;;;;;;;;;;;;;
2023/05/29 14:23:13;;;;;;;3.87;2.00;;;26.30;46.40;;;;;;5020546;28;20493;-85
2023/05/29 14:26:01;;;;;;;5.87;2.80;;;26.20;46.80;;;;;;4982544;28;20486;-84
2023/05/29 14:29:00;;;;;;;3.40;1.70;;;26.30;46.50;;;;;;5034388;28;20572;-85
2023/05/29 14:32:00;;;;;;;5.10;2.90;;;26.30;46.00;;;;;;5032854;28;20485;-84
2023/05/29 14:35:22;;;;;;;3.30;2.77;;;26.40;45.50;;;;;;5015593;28;20446;-84
2023/05/29 14:38:23;;;;;;;;;;;;;;;;;;;;;
2023/05/29 14:41:29;;;;;;;5.93;2.23;;;26.00;47.00;;;;;;5044125;28;20538;-83
2023/05/29 14:45:03;;;;;;;3.07;2.30;;;25.90;47.20;;;;;;5041065;28;20418;-83
2023/05/29 14:48:10;;;;;;;6.13;2.13;;;26.00;46.70;;;;;;5044795;28;20502;-81
2023/05/29 14:51:01;;;;;;;4.00;2.20;;;25.90;47.20;;;;;;5050266;28;20483;-85
2023/05/29 14:54:02;;;;;;;5.73;2.30;;;25.70;47.10;;;;;;5048269;28;20771;-83
2023/05/29 14:56:52;;;;;;;4.20;2.33;;;25.50;47.50;;;;;;5045987;28;20489;-85
2023/05/29 14:59:42;;;;;;;6.60;2.17;;;25.50;47.30;;;;;;5050221;28;20542;-85
2023/05/29 15:05:28;;;;;;;2.33;1.90;;;25.40;48.20;;;;;;4991679;28;20471;-86
2023/05/29 15:08:40;;;;;;;4.70;2.30;;;25.80;47.80;;;;;;5032838;28;20454;-86
2023/05/29 15:12:06;;;;;;;2.67;2.40;;;25.70;47.20;;;;;;5030336;28;20524;-86
2023/05/29 15:15:14;;;;;;;2.47;2.10;;;25.50;47.70;;;;;;5029536;28;20438;-85
2023/05/29 15:22:08;;;;;;;5.30;2.17;;;25.40;48.30;;;;;;5040431;28;20438;-85
2023/05/29 15:42:20;;;;;;;;;;;;;;;;;;;;;
2023/05/29 15:48:31;;;;;;;5.40;2.37;;;25.10;47.50;;;;;;558150;26;21640;-84
2023/05/29 15:55:10;;;;;;;5.40;2.43;;;24.50;48.10;;;;;;5049344;28;20938;-84
2023/05/29 15:58:37;;;;;;;5.40;2.70;;;24.50;48.50;;;;;;5099313;22;20606;-84
2023/05/29 16:02:02;;;;;;;6.90;2.70;;;24.40;48.50;;;;;;5023284;28;20521;-85
2023/05/29 16:05:36;;;;;;;3.03;2.20;;;24.50;48.40;;;;;;5038757;28;20838;-84
2023/05/29 16:12:21;;;;;;;4.43;1.90;;;24.60;48.40;;;;;;4962207;28;20448;-84
2023/05/29 16:15:09;;;;;;;4.03;2.60;;;24.60;48.60;;;;;;5005215;28;20466;-84
2023/05/29 16:17:57;;;;;;;3.63;2.00;;;24.50;49.40;;;;;;5010964;28;20466;-86
2023/05/29 16:20:55;;;;;;;5.53;2.20;;;24.40;49.70;;;;;;5019511;28;20456;-85
2023/05/29 16:23:46;;;;;;;;;;;;;;;;;;;;;
2023/05/29 16:30:23;;;;;;;3.50;1.97;;;24.30;49.40;;;;;;5008231;28;20957;-85
2023/05/29 16:33:12;;;;;;;5.30;2.97;;;24.20;49.10;;;;;;5008809;28;20500;-85
2023/05/29 16:36:09;;;;;;;4.43;2.30;;;24.20;49.60;;;;;;5017475;28;20534;-86
2023/05/29 16:39:07;;;;;;;2.27;1.60;;;24.20;49.10;;;;;;5008158;28;20454;-83
2023/05/29 16:42:14;;;;;;;7.77;3.10;;;24.20;49.10;;;;;;5016488;28;20515;-86
2023/05/29 16:45:07;;;;;;;4.30;2.00;;;24.10;49.20;;;;;;5014673;28;20457;-86
2023/05/29 16:47:52;;;;;;;4.27;2.00;;;24.30;48.70;;;;;;5015096;28;20498;-85
2023/05/29 16:54:41;;;;;;;5.20;2.67;;;24.20;48.50;;;;;;4976086;28;20612;-83
2023/05/29 16:57:42;;;;;;;5.83;2.53;;;24.20;48.60;;;;;;5004533;28;20466;-84
2023/05/29 17:00:31;;;;;;;3.17;2.20;;;24.20;48.60;;;;;;4970117;28;20441;-81
2023/05/29 17:07:36;;;;;;;2.50;2.17;;;24.30;48.80;;;;;;4978911;28;20471;-82
2023/05/29 17:10:39;;;;;;;3.70;2.33;;;24.30;48.80;;;;;;4974747;28;20502;-83
2023/05/29 17:13:27;;;;;;;;;;;;;;;;;;;;;
2023/05/29 17:16:25;;;;;;;3.93;2.60;;;24.30;48.30;;;;;;4976366;28;20550;-85
2023/05/29 17:19:06;;;;;;;3.23;2.20;;;24.00;48.30;;;;;;4975857;28;20461;-85
2023/05/29 17:22:04;;;;;;;4.07;2.23;;;24.00;48.80;;;;;;4953505;28;20456;-86
2023/05/29 17:25:20;;;;;;;3.67;2.00;;;23.90;48.80;;;;;;4950642;28;20464;-85
2023/05/29 17:28:27;;;;;;;3.67;2.00;;;23.90;48.30;;;;;;4960569;28;20476;-84
2023/05/29 17:31:32;;;;;;;2.50;2.00;;;23.90;47.90;;;;;;4979750;28;20443;-82
2023/05/29 17:34:41;;;;;;;2.00;1.80;;;24.00;48.00;;;;;;4959423;28;20516;-82
2023/05/29 17:37:54;;;;;;;3.67;2.00;;;23.90;48.70;;;;;;4961510;28;20517;-83
2023/05/29 17:41:05;;;;;;;;;;;;;;;;;;;;;
2023/05/29 17:44:26;;;;;;;4.40;1.80;;;23.70;48.30;;;;;;4969185;28;20527;-83
2023/05/29 17:50:36;;;;;;;2.60;2.17;;;23.60;49.00;;;;;;4971775;28;20458;-84
2023/05/29 17:53:49;;;;;;;5.30;2.20;;;23.70;47.70;;;;;;4969733;28;20671;-82
2023/05/29 17:57:06;;;;;;;;;;;;;;;;;;;;;
2023/05/29 18:00:13;;;;;;;;;;;;;;;;;;;;;
2023/05/29 18:03:31;;;;;;;2.20;1.80;;;23.30;48.10;;;;;;5001674;28;20481;-83
2023/05/29 18:06:40;;;;;;;3.50;2.20;;;23.30;48.80;;;;;;5019858;28;20867;-84
2023/05/29 18:09:30;;;;;;;3.97;2.33;;;23.10;49.10;;;;;;5032298;28;20524;-82
2023/05/29 18:12:28;;;;;;;3.20;2.10;;;23.20;48.40;;;;;;5039435;28;20430;-80